sensor_id;sensor_type;location;lat;lon;timestamp;P1;durP1;ratioP1;P2;durP2;ratioP2
84297;SDS011;74466;51.188;3.242;2024-01-30T00:01:53;18.98;;;9.82;;
84297;SDS011;74466;51.188;3.242;2024-01-30T00:04:19;21.88;;;9.95;;
84297;SDS011;74466;51.188;3.242;2024-01-30T00:06:45;17.40;;;9.13;;
84297;SDS011;74466;51.188;3.242;2024-01-30T00:09:11;18.67;;;9.73;;
84297;SDS011;74466;51.188;3.242;2024-01-30T00:11:37;18.08;;;9.85;;
84297;SDS011;74466;51.188;3.242;2024-01-30T00:14:06;19.08;;;9.55;;
84297;SDS011;74466;51.188;3.242;2024-01-30T00:16:31;21.48;;;9.77;;
84297;SDS011;74466;51.188;3.242;2024-01-30T00:18:57;19.00;;;9.73;;
84297;SDS011;74466;51.188;3.242;2024-01-30T00:21:23;17.80;;;9.98;;
84297;SDS011;74466;51.188;3.242;2024-01-30T00:23:50;17.27;;;9.23;;
84297;SDS011;74466;51.188;3.242;2024-01-30T00:26:15;20.02;;;9.82;;
84297;SDS011;74466;51.188;3.242;2024-01-30T00:28:41;19.05;;;9.10;;
84297;SDS011;74466;51.188;3.242;2024-01-30T00:31:07;18.40;;;9.27;;
84297;SDS011;74466;51.188;3.242;2024-01-30T00:33:37;18.08;;;9.27;;
84297;SDS011;74466;51.188;3.242;2024-01-30T00:36:05;18.75;;;9.35;;
84297;SDS011;74466;51.188;3.242;2024-01-30T00:38:33;18.23;;;9.50;;
84297;SDS011;74466;51.188;3.242;2024-01-30T00:40:59;18.25;;;9.80;;
84297;SDS011;74466;51.188;3.242;2024-01-30T00:43:26;19.92;;;9.43;;
84297;SDS011;74466;51.188;3.242;2024-01-30T00:45:52;18.58;;;9.15;;
84297;SDS011;74466;51.188;3.242;2024-01-30T00:48:19;19.20;;;9.10;;
84297;SDS011;74466;51.188;3.242;2024-01-30T00:50:45;16.65;;;9.13;;
84297;SDS011;74466;51.188;3.242;2024-01-30T00:53:10;17.35;;;8.88;;
84297;SDS011;74466;51.188;3.242;2024-01-30T00:55:36;16.08;;;8.90;;
84297;SDS011;74466;51.188;3.242;2024-01-30T00:58:02;17.77;;;9.07;;
84297;SDS011;74466;51.188;3.242;2024-01-30T01:00:29;16.75;;;8.52;;
84297;SDS011;74466;51.188;3.242;2024-01-30T01:02:56;17.27;;;8.82;;
84297;SDS011;74466;51.188;3.242;2024-01-30T01:05:21;17.88;;;9.23;;
84297;SDS011;74466;51.188;3.242;2024-01-30T01:07:47;19.75;;;8.77;;
84297;SDS011;74466;51.188;3.242;2024-01-30T01:10:14;20.10;;;9.20;;
84297;SDS011;74466;51.188;3.242;2024-01-30T01:12:41;18.25;;;9.23;;
84297;SDS011;74466;51.188;3.242;2024-01-30T01:15:07;18.58;;;9.30;;
84297;SDS011;74466;51.188;3.242;2024-01-30T01:17:36;17.83;;;8.73;;
84297;SDS011;74466;51.188;3.242;2024-01-30T01:20:03;16.60;;;9.07;;
84297;SDS011;74466;51.188;3.242;2024-01-30T01:22:30;17.45;;;9.15;;
84297;SDS011;74466;51.188;3.242;2024-01-30T01:24:56;16.85;;;9.43;;
84297;SDS011;74466;51.188;3.242;2024-01-30T01:27:22;17.77;;;9.05;;
84297;SDS011;74466;51.188;3.242;2024-01-30T01:29:48;19.58;;;9.73;;
84297;SDS011;74466;51.188;3.242;2024-01-30T01:32:14;19.42;;;9.93;;
84297;SDS011;74466;51.188;3.242;2024-01-30T01:34:39;18.77;;;9.30;;
84297;SDS011;74466;51.188;3.242;2024-01-30T01:37:05;17.85;;;8.77;;
84297;SDS011;74466;51.188;3.242;2024-01-30T01:39:33;18.20;;;8.95;;
84297;SDS011;74466;51.188;3.242;2024-01-30T01:41:58;18.42;;;8.95;;
84297;SDS011;74466;51.188;3.242;2024-01-30T01:44:24;20.30;;;9.10;;
84297;SDS011;74466;51.188;3.242;2024-01-30T01:46:50;17.77;;;9.60;;
84297;SDS011;74466;51.188;3.242;2024-01-30T01:49:17;18.23;;;9.52;;
84297;SDS011;74466;51.188;3.242;2024-01-30T01:51:44;18.05;;;9.65;;
84297;SDS011;74466;51.188;3.242;2024-01-30T01:54:12;17.10;;;9.30;;
84297;SDS011;74466;51.188;3.242;2024-01-30T01:56:39;17.77;;;9.52;;
84297;SDS011;74466;51.188;3.242;2024-01-30T01:59:07;19.30;;;9.30;;
84297;SDS011;74466;51.188;3.242;2024-01-30T02:01:34;18.58;;;9.68;;
84297;SDS011;74466;51.188;3.242;2024-01-30T02:04:01;17.38;;;8.95;;
84297;SDS011;74466;51.188;3.242;2024-01-30T02:06:27;19.67;;;9.40;;
84297;SDS011;74466;51.188;3.242;2024-01-30T02:08:53;17.92;;;9.43;;
84297;SDS011;74466;51.188;3.242;2024-01-30T02:11:20;16.73;;;9.25;;
84297;SDS011;74466;51.188;3.242;2024-01-30T02:13:47;19.02;;;9.20;;
84297;SDS011;74466;51.188;3.242;2024-01-30T02:16:13;19.98;;;9.80;;
84297;SDS011;74466;51.188;3.242;2024-01-30T02:18:38;18.00;;;9.50;;
84297;SDS011;74466;51.188;3.242;2024-01-30T02:21:09;18.20;;;9.70;;
84297;SDS011;74466;51.188;3.242;2024-01-30T02:23:34;19.05;;;9.35;;
84297;SDS011;74466;51.188;3.242;2024-01-30T02:26:01;18.40;;;9.02;;
84297;SDS011;74466;51.188;3.242;2024-01-30T02:28:27;19.88;;;9.88;;
84297;SDS011;74466;51.188;3.242;2024-01-30T02:30:52;20.65;;;9.75;;
84297;SDS011;74466;51.188;3.242;2024-01-30T02:33:18;20.33;;;9.60;;
84297;SDS011;74466;51.188;3.242;2024-01-30T02:35:44;19.40;;;9.25;;
84297;SDS011;74466;51.188;3.242;2024-01-30T02:38:10;17.90;;;9.68;;
84297;SDS011;74466;51.188;3.242;2024-01-30T02:40:36;17.65;;;8.90;;
84297;SDS011;74466;51.188;3.242;2024-01-30T02:43:02;17.80;;;9.07;;
84297;SDS011;74466;51.188;3.242;2024-01-30T02:45:28;18.10;;;9.43;;
84297;SDS011;74466;51.188;3.242;2024-01-30T02:47:54;18.98;;;9.82;;
84297;SDS011;74466;51.188;3.242;2024-01-30T02:50:19;19.50;;;9.20;;
84297;SDS011;74466;51.188;3.242;2024-01-30T02:52:45;20.13;;;9.50;;
84297;SDS011;74466;51.188;3.242;2024-01-30T02:55:11;17.70;;;9.25;;
84297;SDS011;74466;51.188;3.242;2024-01-30T02:57:37;17.33;;;9.07;;
84297;SDS011;74466;51.188;3.242;2024-01-30T03:00:04;17.25;;;9.27;;
84297;SDS011;74466;51.188;3.242;2024-01-30T03:02:31;16.92;;;9.13;;
84297;SDS011;74466;51.188;3.242;2024-01-30T03:04:57;18.02;;;8.95;;
84297;SDS011;74466;51.188;3.242;2024-01-30T03:07:24;16.98;;;9.00;;
84297;SDS011;74466;51.188;3.242;2024-01-30T03:09:50;17.17;;;8.82;;
84297;SDS011;74466;51.188;3.242;2024-01-30T03:12:15;18.63;;;9.82;;
84297;SDS011;74466;51.188;3.242;2024-01-30T03:14:41;20.17;;;9.73;;
84297;SDS011;74466;51.188;3.242;2024-01-30T03:17:07;18.85;;;9.57;;
84297;SDS011;74466;51.188;3.242;2024-01-30T03:19:33;15.50;;;8.90;;
84297;SDS011;74466;51.188;3.242;2024-01-30T03:21:59;19.08;;;8.82;;
84297;SDS011;74466;51.188;3.242;2024-01-30T03:24:25;20.13;;;9.50;;
84297;SDS011;74466;51.188;3.242;2024-01-30T03:26:50;20.70;;;9.52;;
84297;SDS011;74466;51.188;3.242;2024-01-30T03:29:16;18.83;;;9.70;;
84297;SDS011;74466;51.188;3.242;2024-01-30T03:31:42;17.05;;;9.27;;
84297;SDS011;74466;51.188;3.242;2024-01-30T03:34:07;18.13;;;9.45;;
84297;SDS011;74466;51.188;3.242;2024-01-30T03:36:33;20.42;;;9.40;;
84297;SDS011;74466;51.188;3.242;2024-01-30T03:38:59;18.20;;;9.82;;
84297;SDS011;74466;51.188;3.242;2024-01-30T03:41:26;18.98;;;9.98;;
84297;SDS011;74466;51.188;3.242;2024-01-30T03:43:52;20.48;;;9.77;;
84297;SDS011;74466;51.188;3.242;2024-01-30T03:46:17;21.10;;;9.68;;
84297;SDS011;74466;51.188;3.242;2024-01-30T03:48:44;20.67;;;9.68;;
84297;SDS011;74466;51.188;3.242;2024-01-30T03:51:10;20.70;;;10.07;;
84297;SDS011;74466;51.188;3.242;2024-01-30T03:53:41;19.65;;;9.82;;
84297;SDS011;74466;51.188;3.242;2024-01-30T03:56:07;18.35;;;9.32;;
84297;SDS011;74466;51.188;3.242;2024-01-30T03:58:33;18.50;;;8.90;;
84297;SDS011;74466;51.188;3.242;2024-01-30T04:00:59;19.35;;;9.52;;
84297;SDS011;74466;51.188;3.242;2024-01-30T04:03:25;18.90;;;9.75;;
84297;SDS011;74466;51.188;3.242;2024-01-30T04:05:51;20.33;;;10.00;;
84297;SDS011;74466;51.188;3.242;2024-01-30T04:08:17;17.95;;;9.60;;
84297;SDS011;74466;51.188;3.242;2024-01-30T04:10:43;19.08;;;9.77;;
84297;SDS011;74466;51.188;3.242;2024-01-30T04:13:09;20.25;;;9.45;;
84297;SDS011;74466;51.188;3.242;2024-01-30T04:15:35;20.30;;;9.45;;
84297;SDS011;74466;51.188;3.242;2024-01-30T04:18:01;20.73;;;9.68;;
84297;SDS011;74466;51.188;3.242;2024-01-30T04:20:27;19.05;;;9.63;;
84297;SDS011;74466;51.188;3.242;2024-01-30T04:22:53;18.80;;;9.90;;
84297;SDS011;74466;51.188;3.242;2024-01-30T04:25:18;19.67;;;9.77;;
84297;SDS011;74466;51.188;3.242;2024-01-30T04:27:44;18.48;;;9.25;;
84297;SDS011;74466;51.188;3.242;2024-01-30T04:30:10;19.58;;;9.48;;
84297;SDS011;74466;51.188;3.242;2024-01-30T04:32:36;22.08;;;9.63;;
84297;SDS011;74466;51.188;3.242;2024-01-30T04:35:02;21.90;;;9.80;;
84297;SDS011;74466;51.188;3.242;2024-01-30T04:37:28;17.85;;;9.32;;
84297;SDS011;74466;51.188;3.242;2024-01-30T04:39:54;20.05;;;9.23;;
84297;SDS011;74466;51.188;3.242;2024-01-30T04:42:20;21.55;;;9.43;;
84297;SDS011;74466;51.188;3.242;2024-01-30T04:44:46;19.88;;;9.15;;
84297;SDS011;74466;51.188;3.242;2024-01-30T04:47:13;20.27;;;9.13;;
84297;SDS011;74466;51.188;3.242;2024-01-30T04:49:39;19.58;;;9.25;;
84297;SDS011;74466;51.188;3.242;2024-01-30T04:52:05;19.20;;;9.20;;
84297;SDS011;74466;51.188;3.242;2024-01-30T04:54:31;20.77;;;8.85;;
84297;SDS011;74466;51.188;3.242;2024-01-30T04:56:58;20.20;;;8.45;;
84297;SDS011;74466;51.188;3.242;2024-01-30T04:59:24;16.63;;;8.63;;
84297;SDS011;74466;51.188;3.242;2024-01-30T05:01:50;18.08;;;8.65;;
84297;SDS011;74466;51.188;3.242;2024-01-30T05:04:15;20.20;;;8.85;;
84297;SDS011;74466;51.188;3.242;2024-01-30T05:06:41;17.27;;;8.60;;
84297;SDS011;74466;51.188;3.242;2024-01-30T05:09:07;21.35;;;8.45;;
84297;SDS011;74466;51.188;3.242;2024-01-30T05:11:37;16.60;;;8.32;;
84297;SDS011;74466;51.188;3.242;2024-01-30T05:14:04;23.63;;;9.15;;
84297;SDS011;74466;51.188;3.242;2024-01-30T05:16:30;27.83;;;12.40;;
84297;SDS011;74466;51.188;3.242;2024-01-30T05:18:56;21.25;;;11.65;;
84297;SDS011;74466;51.188;3.242;2024-01-30T05:21:22;18.08;;;8.60;;
84297;SDS011;74466;51.188;3.242;2024-01-30T05:23:48;18.70;;;8.57;;
84297;SDS011;74466;51.188;3.242;2024-01-30T05:26:13;17.25;;;8.57;;
84297;SDS011;74466;51.188;3.242;2024-01-30T05:28:39;19.38;;;9.10;;
84297;SDS011;74466;51.188;3.242;2024-01-30T05:31:05;22.35;;;8.80;;
84297;SDS011;74466;51.188;3.242;2024-01-30T05:33:30;22.70;;;8.70;;
84297;SDS011;74466;51.188;3.242;2024-01-30T05:35:56;18.85;;;8.60;;
84297;SDS011;74466;51.188;3.242;2024-01-30T05:38:22;19.23;;;9.10;;
84297;SDS011;74466;51.188;3.242;2024-01-30T05:40:48;18.85;;;8.32;;
84297;SDS011;74466;51.188;3.242;2024-01-30T05:43:14;20.75;;;8.93;;
84297;SDS011;74466;51.188;3.242;2024-01-30T05:45:40;19.95;;;8.65;;
84297;SDS011;74466;51.188;3.242;2024-01-30T05:48:06;18.67;;;8.60;;
84297;SDS011;74466;51.188;3.242;2024-01-30T05:50:32;17.83;;;8.43;;
84297;SDS011;74466;51.188;3.242;2024-01-30T05:52:57;19.80;;;8.80;;
84297;SDS011;74466;51.188;3.242;2024-01-30T05:55:23;18.10;;;8.75;;
84297;SDS011;74466;51.188;3.242;2024-01-30T05:57:48;19.60;;;9.00;;
84297;SDS011;74466;51.188;3.242;2024-01-30T06:00:14;17.45;;;8.85;;
84297;SDS011;74466;51.188;3.242;2024-01-30T06:02:41;19.30;;;8.75;;
84297;SDS011;74466;51.188;3.242;2024-01-30T06:05:07;18.55;;;8.90;;
84297;SDS011;74466;51.188;3.242;2024-01-30T06:07:33;16.13;;;8.50;;
84297;SDS011;74466;51.188;3.242;2024-01-30T06:09:59;17.95;;;8.93;;
84297;SDS011;74466;51.188;3.242;2024-01-30T06:12:27;21.42;;;9.38;;
84297;SDS011;74466;51.188;3.242;2024-01-30T06:14:53;15.98;;;8.75;;
84297;SDS011;74466;51.188;3.242;2024-01-30T06:17:21;17.30;;;8.68;;
84297;SDS011;74466;51.188;3.242;2024-01-30T06:19:49;22.23;;;9.27;;
84297;SDS011;74466;51.188;3.242;2024-01-30T06:22:15;21.05;;;9.18;;
84297;SDS011;74466;51.188;3.242;2024-01-30T06:24:41;19.67;;;9.38;;
84297;SDS011;74466;51.188;3.242;2024-01-30T06:27:07;18.23;;;9.23;;
84297;SDS011;74466;51.188;3.242;2024-01-30T06:29:33;18.45;;;9.43;;
84297;SDS011;74466;51.188;3.242;2024-01-30T06:31:59;22.15;;;9.60;;
84297;SDS011;74466;51.188;3.242;2024-01-30T06:34:24;18.67;;;9.23;;
84297;SDS011;74466;51.188;3.242;2024-01-30T06:36:51;21.23;;;9.63;;
84297;SDS011;74466;51.188;3.242;2024-01-30T06:39:17;17.23;;;9.10;;
84297;SDS011;74466;51.188;3.242;2024-01-30T06:41:43;18.30;;;9.02;;
84297;SDS011;74466;51.188;3.242;2024-01-30T06:44:11;24.15;;;9.07;;
84297;SDS011;74466;51.188;3.242;2024-01-30T06:46:38;20.10;;;9.20;;
84297;SDS011;74466;51.188;3.242;2024-01-30T06:49:04;22.67;;;9.43;;
84297;SDS011;74466;51.188;3.242;2024-01-30T06:51:29;19.60;;;9.13;;
84297;SDS011;74466;51.188;3.242;2024-01-30T06:53:55;24.08;;;9.40;;
84297;SDS011;74466;51.188;3.242;2024-01-30T06:56:21;21.20;;;8.82;;
84297;SDS011;74466;51.188;3.242;2024-01-30T06:58:48;21.73;;;9.73;;
84297;SDS011;74466;51.188;3.242;2024-01-30T07:01:14;20.17;;;9.07;;
84297;SDS011;74466;51.188;3.242;2024-01-30T07:03:41;17.77;;;8.75;;
84297;SDS011;74466;51.188;3.242;2024-01-30T07:06:07;18.30;;;9.05;;
84297;SDS011;74466;51.188;3.242;2024-01-30T07:08:33;19.63;;;8.90;;
84297;SDS011;74466;51.188;3.242;2024-01-30T07:10:59;21.58;;;9.63;;
84297;SDS011;74466;51.188;3.242;2024-01-30T07:13:25;18.75;;;9.02;;
84297;SDS011;74466;51.188;3.242;2024-01-30T07:15:51;19.58;;;9.25;;
84297;SDS011;74466;51.188;3.242;2024-01-30T07:18:16;19.38;;;9.55;;
84297;SDS011;74466;51.188;3.242;2024-01-30T07:20:42;18.60;;;9.63;;
84297;SDS011;74466;51.188;3.242;2024-01-30T07:23:14;31.50;;;9.38;;
84297;SDS011;74466;51.188;3.242;2024-01-30T07:25:42;19.73;;;9.77;;
84297;SDS011;74466;51.188;3.242;2024-01-30T07:28:11;21.80;;;9.88;;
84297;SDS011;74466;51.188;3.242;2024-01-30T07:30:37;22.88;;;9.98;;
84297;SDS011;74466;51.188;3.242;2024-01-30T07:33:03;21.33;;;9.10;;
84297;SDS011;74466;51.188;3.242;2024-01-30T07:35:29;20.88;;;8.68;;
84297;SDS011;74466;51.188;3.242;2024-01-30T07:37:55;18.10;;;9.40;;
84297;SDS011;74466;51.188;3.242;2024-01-30T07:40:22;21.48;;;9.00;;
84297;SDS011;74466;51.188;3.242;2024-01-30T07:42:49;23.00;;;9.50;;
84297;SDS011;74466;51.188;3.242;2024-01-30T07:45:14;19.33;;;9.00;;
84297;SDS011;74466;51.188;3.242;2024-01-30T07:47:40;19.42;;;9.00;;
84297;SDS011;74466;51.188;3.242;2024-01-30T07:50:07;23.88;;;9.00;;
84297;SDS011;74466;51.188;3.242;2024-01-30T07:52:33;24.05;;;9.65;;
84297;SDS011;74466;51.188;3.242;2024-01-30T07:54:59;21.15;;;8.85;;
84297;SDS011;74466;51.188;3.242;2024-01-30T07:57:25;29.70;;;8.77;;
84297;SDS011;74466;51.188;3.242;2024-01-30T07:59:50;21.85;;;8.40;;
84297;SDS011;74466;51.188;3.242;2024-01-30T08:02:16;19.30;;;8.32;;
84297;SDS011;74466;51.188;3.242;2024-01-30T08:04:42;21.70;;;8.27;;
84297;SDS011;74466;51.188;3.242;2024-01-30T08:07:08;19.80;;;7.80;;
84297;SDS011;74466;51.188;3.242;2024-01-30T08:09:33;20.42;;;7.78;;
84297;SDS011;74466;51.188;3.242;2024-01-30T08:11:59;16.25;;;7.25;;
84297;SDS011;74466;51.188;3.242;2024-01-30T08:14:25;18.05;;;7.15;;
84297;SDS011;74466;51.188;3.242;2024-01-30T08:16:51;16.52;;;5.15;;
84297;SDS011;74466;51.188;3.242;2024-01-30T08:19:18;21.27;;;5.25;;
84297;SDS011;74466;51.188;3.242;2024-01-30T08:21:44;13.38;;;4.40;;
84297;SDS011;74466;51.188;3.242;2024-01-30T08:24:10;12.55;;;4.03;;
84297;SDS011;74466;51.188;3.242;2024-01-30T08:26:36;18.38;;;3.65;;
84297;SDS011;74466;51.188;3.242;2024-01-30T08:29:02;11.98;;;3.00;;
84297;SDS011;74466;51.188;3.242;2024-01-30T08:31:27;15.55;;;2.90;;
84297;SDS011;74466;51.188;3.242;2024-01-30T08:33:53;13.60;;;2.55;;
84297;SDS011;74466;51.188;3.242;2024-01-30T08:36:19;15.77;;;2.30;;
84297;SDS011;74466;51.188;3.242;2024-01-30T08:38:45;15.35;;;2.60;;
84297;SDS011;74466;51.188;3.242;2024-01-30T08:41:10;8.25;;;2.25;;
84297;SDS011;74466;51.188;3.242;2024-01-30T08:43:37;9.90;;;2.00;;
84297;SDS011;74466;51.188;3.242;2024-01-30T08:46:03;11.02;;;2.20;;
84297;SDS011;74466;51.188;3.242;2024-01-30T08:48:28;11.23;;;2.20;;
84297;SDS011;74466;51.188;3.242;2024-01-30T08:50:54;9.75;;;1.90;;
84297;SDS011;74466;51.188;3.242;2024-01-30T08:53:20;11.90;;;1.90;;
84297;SDS011;74466;51.188;3.242;2024-01-30T08:55:46;10.48;;;1.65;;
84297;SDS011;74466;51.188;3.242;2024-01-30T08:58:11;9.10;;;1.90;;
84297;SDS011;74466;51.188;3.242;2024-01-30T09:00:38;19.27;;;3.20;;
84297;SDS011;74466;51.188;3.242;2024-01-30T09:03:03;5.70;;;1.23;;
84297;SDS011;74466;51.188;3.242;2024-01-30T09:05:29;11.73;;;1.60;;
84297;SDS011;74466;51.188;3.242;2024-01-30T09:07:55;5.20;;;0.98;;
84297;SDS011;74466;51.188;3.242;2024-01-30T09:10:21;6.32;;;1.15;;
84297;SDS011;74466;51.188;3.242;2024-01-30T09:12:47;5.68;;;0.90;;
84297;SDS011;74466;51.188;3.242;2024-01-30T09:15:13;4.32;;;0.80;;
84297;SDS011;74466;51.188;3.242;2024-01-30T09:17:39;4.20;;;0.60;;
84297;SDS011;74466;51.188;3.242;2024-01-30T09:20:05;5.57;;;0.82;;
84297;SDS011;74466;51.188;3.242;2024-01-30T09:22:31;20.50;;;1.88;;
84297;SDS011;74466;51.188;3.242;2024-01-30T09:24:57;5.18;;;0.52;;
84297;SDS011;74466;51.188;3.242;2024-01-30T09:27:23;3.90;;;0.68;;
84297;SDS011;74466;51.188;3.242;2024-01-30T09:29:49;3.88;;;0.82;;
84297;SDS011;74466;51.188;3.242;2024-01-30T09:32:15;4.13;;;0.90;;
84297;SDS011;74466;51.188;3.242;2024-01-30T09:34:42;4.30;;;0.70;;
84297;SDS011;74466;51.188;3.242;2024-01-30T09:37:08;3.58;;;0.63;;
84297;SDS011;74466;51.188;3.242;2024-01-30T09:39:34;4.43;;;0.70;;
84297;SDS011;74466;51.188;3.242;2024-01-30T09:44:40;3.75;;;0.70;;
84297;SDS011;74466;51.188;3.242;2024-01-30T09:47:08;6.13;;;0.85;;
84297;SDS011;74466;51.188;3.242;2024-01-30T09:49:35;4.45;;;0.90;;
84297;SDS011;74466;51.188;3.242;2024-01-30T09:52:02;3.83;;;0.70;;
84297;SDS011;74466;51.188;3.242;2024-01-30T09:54:31;3.30;;;0.80;;
84297;SDS011;74466;51.188;3.242;2024-01-30T09:56:57;5.57;;;0.80;;
84297;SDS011;74466;51.188;3.242;2024-01-30T09:59:23;3.90;;;0.80;;
84297;SDS011;74466;51.188;3.242;2024-01-30T10:01:50;5.03;;;0.90;;
84297;SDS011;74466;51.188;3.242;2024-01-30T10:04:16;4.03;;;0.82;;
84297;SDS011;74466;51.188;3.242;2024-01-30T10:06:42;5.63;;;1.05;;
84297;SDS011;74466;51.188;3.242;2024-01-30T10:09:08;5.82;;;0.82;;
84297;SDS011;74466;51.188;3.242;2024-01-30T10:11:34;5.32;;;0.70;;
84297;SDS011;74466;51.188;3.242;2024-01-30T10:14:01;5.90;;;0.80;;
84297;SDS011;74466;51.188;3.242;2024-01-30T10:16:27;3.55;;;0.65;;
84297;SDS011;74466;51.188;3.242;2024-01-30T10:18:53;6.82;;;0.80;;
84297;SDS011;74466;51.188;3.242;2024-01-30T10:21:19;3.30;;;0.55;;
84297;SDS011;74466;51.188;3.242;2024-01-30T10:23:44;4.82;;;0.80;;
84297;SDS011;74466;51.188;3.242;2024-01-30T10:26:10;4.18;;;0.60;;
84297;SDS011;74466;51.188;3.242;2024-01-30T10:28:36;4.93;;;0.70;;
84297;SDS011;74466;51.188;3.242;2024-01-30T10:31:02;4.20;;;0.80;;
84297;SDS011;74466;51.188;3.242;2024-01-30T10:33:31;5.55;;;0.68;;
84297;SDS011;74466;51.188;3.242;2024-01-30T10:36:00;5.78;;;0.70;;
84297;SDS011;74466;51.188;3.242;2024-01-30T10:38:30;5.78;;;1.00;;
84297;SDS011;74466;51.188;3.242;2024-01-30T10:40:58;4.05;;;0.80;;
84297;SDS011;74466;51.188;3.242;2024-01-30T10:43:32;5.43;;;1.10;;
84297;SDS011;74466;51.188;3.242;2024-01-30T10:48:57;4.73;;;0.70;;
84297;SDS011;74466;51.188;3.242;2024-01-30T10:51:26;3.25;;;0.65;;
84297;SDS011;74466;51.188;3.242;2024-01-30T10:53:53;4.22;;;0.55;;
84297;SDS011;74466;51.188;3.242;2024-01-30T10:56:20;5.70;;;0.80;;
84297;SDS011;74466;51.188;3.242;2024-01-30T10:58:50;3.85;;;0.68;;
84297;SDS011;74466;51.188;3.242;2024-01-30T11:01:21;5.07;;;0.77;;
84297;SDS011;74466;51.188;3.242;2024-01-30T11:03:53;4.53;;;0.73;;
84297;SDS011;74466;51.188;3.242;2024-01-30T11:06:23;5.72;;;0.90;;
84297;SDS011;74466;51.188;3.242;2024-01-30T11:09:02;5.65;;;1.00;;
84297;SDS011;74466;51.188;3.242;2024-01-30T11:11:47;4.68;;;0.80;;
84297;SDS011;74466;51.188;3.242;2024-01-30T11:14:22;4.13;;;0.88;;
84297;SDS011;74466;51.188;3.242;2024-01-30T11:16:49;6.20;;;1.02;;
84297;SDS011;74466;51.188;3.242;2024-01-30T11:19:14;4.47;;;0.73;;
84297;SDS011;74466;51.188;3.242;2024-01-30T11:21:41;4.50;;;0.80;;
84297;SDS011;74466;51.188;3.242;2024-01-30T11:24:07;4.65;;;0.73;;
84297;SDS011;74466;51.188;3.242;2024-01-30T11:26:33;8.57;;;1.00;;
84297;SDS011;74466;51.188;3.242;2024-01-30T11:28:59;5.45;;;0.93;;
84297;SDS011;74466;51.188;3.242;2024-01-30T11:31:30;2.88;;;0.68;;
84297;SDS011;74466;51.188;3.242;2024-01-30T11:33:56;6.15;;;0.90;;
84297;SDS011;74466;51.188;3.242;2024-01-30T11:36:25;5.03;;;1.33;;
84297;SDS011;74466;51.188;3.242;2024-01-30T11:38:52;3.33;;;0.70;;
84297;SDS011;74466;51.188;3.242;2024-01-30T11:41:18;7.10;;;0.85;;
84297;SDS011;74466;51.188;3.242;2024-01-30T11:43:51;4.45;;;0.98;;
84297;SDS011;74466;51.188;3.242;2024-01-30T11:46:20;6.38;;;0.73;;
84297;SDS011;74466;51.188;3.242;2024-01-30T11:48:45;2.85;;;0.70;;
84297;SDS011;74466;51.188;3.242;2024-01-30T11:51:12;7.45;;;0.90;;
84297;SDS011;74466;51.188;3.242;2024-01-30T11:53:38;5.18;;;0.70;;
84297;SDS011;74466;51.188;3.242;2024-01-30T11:56:05;5.55;;;1.00;;
84297;SDS011;74466;51.188;3.242;2024-01-30T11:58:32;5.82;;;1.00;;
84297;SDS011;74466;51.188;3.242;2024-01-30T12:00:58;6.18;;;0.90;;
84297;SDS011;74466;51.188;3.242;2024-01-30T12:03:25;5.28;;;0.82;;
84297;SDS011;74466;51.188;3.242;2024-01-30T12:05:56;5.50;;;1.08;;
84297;SDS011;74466;51.188;3.242;2024-01-30T12:08:25;6.07;;;0.93;;
84297;SDS011;74466;51.188;3.242;2024-01-30T12:10:58;7.20;;;1.38;;
84297;SDS011;74466;51.188;3.242;2024-01-30T12:13:25;6.70;;;1.40;;
84297;SDS011;74466;51.188;3.242;2024-01-30T12:15:51;4.88;;;1.38;;
84297;SDS011;74466;51.188;3.242;2024-01-30T12:18:20;5.70;;;1.50;;
84297;SDS011;74466;51.188;3.242;2024-01-30T12:20:56;4.05;;;1.35;;
84297;SDS011;74466;51.188;3.242;2024-01-30T12:23:23;6.32;;;1.88;;
84297;SDS011;74466;51.188;3.242;2024-01-30T12:25:50;5.97;;;1.60;;
84297;SDS011;74466;51.188;3.242;2024-01-30T12:28:17;5.47;;;1.70;;
84297;SDS011;74466;51.188;3.242;2024-01-30T12:30:43;8.05;;;1.60;;
84297;SDS011;74466;51.188;3.242;2024-01-30T12:33:08;8.07;;;2.00;;
84297;SDS011;74466;51.188;3.242;2024-01-30T12:35:35;7.18;;;1.80;;
84297;SDS011;74466;51.188;3.242;2024-01-30T12:38:01;7.03;;;2.03;;
84297;SDS011;74466;51.188;3.242;2024-01-30T12:40:27;7.78;;;1.90;;
84297;SDS011;74466;51.188;3.242;2024-01-30T12:42:54;7.15;;;1.83;;
84297;SDS011;74466;51.188;3.242;2024-01-30T12:45:19;9.45;;;2.10;;
84297;SDS011;74466;51.188;3.242;2024-01-30T12:47:47;8.18;;;1.60;;
84297;SDS011;74466;51.188;3.242;2024-01-30T12:50:13;8.63;;;1.90;;
84297;SDS011;74466;51.188;3.242;2024-01-30T12:52:40;9.40;;;2.00;;
84297;SDS011;74466;51.188;3.242;2024-01-30T12:55:07;9.85;;;2.35;;
84297;SDS011;74466;51.188;3.242;2024-01-30T12:57:33;6.72;;;1.70;;
84297;SDS011;74466;51.188;3.242;2024-01-30T12:59:59;7.25;;;2.28;;
84297;SDS011;74466;51.188;3.242;2024-01-30T13:02:25;8.82;;;1.95;;
84297;SDS011;74466;51.188;3.242;2024-01-30T13:04:53;8.68;;;2.35;;
84297;SDS011;74466;51.188;3.242;2024-01-30T13:07:19;11.27;;;2.17;;
84297;SDS011;74466;51.188;3.242;2024-01-30T13:09:45;6.82;;;1.98;;
84297;SDS011;74466;51.188;3.242;2024-01-30T13:12:12;6.90;;;1.85;;
84297;SDS011;74466;51.188;3.242;2024-01-30T13:14:38;7.95;;;2.03;;
84297;SDS011;74466;51.188;3.242;2024-01-30T13:17:03;6.28;;;1.50;;
84297;SDS011;74466;51.188;3.242;2024-01-30T13:19:29;6.15;;;1.42;;
84297;SDS011;74466;51.188;3.242;2024-01-30T13:21:55;5.10;;;1.30;;
84297;SDS011;74466;51.188;3.242;2024-01-30T13:24:21;9.63;;;2.15;;
84297;SDS011;74466;51.188;3.242;2024-01-30T13:26:47;8.43;;;1.50;;
84297;SDS011;74466;51.188;3.242;2024-01-30T13:29:13;7.25;;;1.65;;
84297;SDS011;74466;51.188;3.242;2024-01-30T13:31:39;7.30;;;2.40;;
84297;SDS011;74466;51.188;3.242;2024-01-30T13:34:06;5.95;;;2.10;;
84297;SDS011;74466;51.188;3.242;2024-01-30T13:36:34;11.40;;;1.83;;
84297;SDS011;74466;51.188;3.242;2024-01-30T13:39:00;7.07;;;2.20;;
84297;SDS011;74466;51.188;3.242;2024-01-30T13:41:26;6.60;;;1.88;;
84297;SDS011;74466;51.188;3.242;2024-01-30T13:43:53;8.23;;;1.85;;
84297;SDS011;74466;51.188;3.242;2024-01-30T13:46:18;6.35;;;1.27;;
84297;SDS011;74466;51.188;3.242;2024-01-30T13:48:44;7.90;;;1.60;;
84297;SDS011;74466;51.188;3.242;2024-01-30T13:51:10;5.30;;;1.63;;
84297;SDS011;74466;51.188;3.242;2024-01-30T13:53:38;7.38;;;1.42;;
84297;SDS011;74466;51.188;3.242;2024-01-30T13:56:03;6.90;;;1.90;;
84297;SDS011;74466;51.188;3.242;2024-01-30T13:58:29;5.38;;;1.63;;
84297;SDS011;74466;51.188;3.242;2024-01-30T14:00:55;5.57;;;1.83;;
84297;SDS011;74466;51.188;3.242;2024-01-30T14:03:21;5.72;;;1.35;;
84297;SDS011;74466;51.188;3.242;2024-01-30T14:05:47;5.40;;;1.60;;
84297;SDS011;74466;51.188;3.242;2024-01-30T14:08:13;5.75;;;1.50;;
84297;SDS011;74466;51.188;3.242;2024-01-30T14:10:39;7.13;;;2.17;;
84297;SDS011;74466;51.188;3.242;2024-01-30T14:13:04;5.63;;;2.10;;
84297;SDS011;74466;51.188;3.242;2024-01-30T14:15:30;6.95;;;1.60;;
84297;SDS011;74466;51.188;3.242;2024-01-30T14:17:55;8.82;;;2.25;;
84297;SDS011;74466;51.188;3.242;2024-01-30T14:20:21;7.15;;;2.80;;
84297;SDS011;74466;51.188;3.242;2024-01-30T14:22:47;7.18;;;1.60;;
84297;SDS011;74466;51.188;3.242;2024-01-30T14:25:13;6.60;;;1.80;;
84297;SDS011;74466;51.188;3.242;2024-01-30T14:27:38;6.30;;;1.60;;
84297;SDS011;74466;51.188;3.242;2024-01-30T14:30:04;7.03;;;1.88;;
84297;SDS011;74466;51.188;3.242;2024-01-30T14:32:30;6.60;;;1.70;;
84297;SDS011;74466;51.188;3.242;2024-01-30T14:34:56;9.50;;;1.88;;
84297;SDS011;74466;51.188;3.242;2024-01-30T14:37:22;7.82;;;1.80;;
84297;SDS011;74466;51.188;3.242;2024-01-30T14:39:48;6.30;;;1.90;;